Time;durP1;ratioP1;P1;durP2;ratioP2;P2;SDS_P1;SDS_P2;PMS_P1;PMS_P2;Temp;Humidity;BMP_temperature;BMP_pressure;BME280_temperature;BME280_humidity;BME280_pressure;Samples;Min_cycle;Max_cycle;Signal;HPM_P1;HPM_P2
2021/04/21 00:01:48;;;;;;;24.10;19.43;;;;;;;;;;5007439;28;20563;-96
2021/04/21 00:04:16;;;;;;;24.60;19.40;;;;;;;;;;5004490;28;20465;-96
2021/04/21 00:06:43;;;;;;;21.30;17.40;;;;;;;;;;5003609;28;20498;-96
2021/04/21 00:09:10;;;;;;;21.37;16.60;;;;;;;;;;5004618;28;20452;-96
2021/04/21 00:11:37;;;;;;;24.03;18.70;;;;;;;;;;5003891;28;20476;-96
2021/04/21 00:14:03;;;;;;;19.97;16.73;;;;;;;;;;5007543;28;20441;-96
2021/04/21 00:16:29;;;;;;;21.67;17.70;;;;;;;;;;5005931;28;20477;-96
2021/04/21 00:18:56;;;;;;;22.27;17.23;;;;;;;;;;5005871;28;20547;-95
2021/04/21 00:21:23;;;;;;;23.33;18.90;;;;;;;;;;5002325;28;21255;-96
2021/04/21 00:23:50;;;;;;;20.90;18.10;;;;;;;;;;4993628;28;20479;-96
2021/04/21 00:26:18;;;;;;;22.30;17.60;;;;;;;;;;5003866;28;20452;-96
2021/04/21 00:28:45;;;;;;;24.03;17.70;;;;;;;;;;5005336;28;20449;-96
2021/04/21 00:31:12;;;;;;;23.30;17.33;;;;;;;;;;5014120;28;20487;-96
2021/04/21 00:33:39;;;;;;;26.33;18.60;;;;;;;;;;5003572;28;20456;-96
2021/04/21 00:36:07;;;;;;;21.33;17.93;;;;;;;;;;5003220;28;20495;-96
2021/04/21 00:38:35;;;;;;;28.73;21.67;;;;;;;;;;4996306;28;20855;-96
2021/04/21 00:41:04;;;;;;;28.57;20.53;;;;;;;;;;5004682;28;20496;-96
2021/04/21 00:43:35;;;;;;;24.13;18.60;;;;;;;;;;5005060;28;20871;-96
2021/04/21 00:46:07;;;;;;;18.20;15.17;;;;;;;;;;5004210;28;20464;-96
2021/04/21 00:48:41;;;;;;;21.90;17.40;;;;;;;;;;5011367;28;20491;-95
2021/04/21 00:51:11;;;;;;;21.57;16.10;;;;;;;;;;5013524;28;20474;-95
2021/04/21 00:53:40;;;;;;;30.40;20.97;;;;;;;;;;5016540;28;20457;-96
2021/04/21 00:56:10;;;;;;;18.40;15.13;;;;;;;;;;5016285;28;20445;-96
2021/04/21 00:58:43;;;;;;;17.13;14.43;;;;;;;;;;5013985;28;20540;-95
2021/04/21 01:01:10;;;;;;;20.53;14.50;;;;;;;;;;5013121;28;20500;-95
2021/04/21 01:03:36;;;;;;;19.63;15.23;;;;;;;;;;5014351;28;20448;-96
2021/04/21 01:06:04;;;;;;;26.87;18.40;;;;;;;;;;5015308;28;20477;-95
2021/04/21 01:08:33;;;;;;;20.83;16.00;;;;;;;;;;5007361;28;20460;-95
2021/04/21 01:11:01;;;;;;;19.97;15.87;;;;;;;;;;5014306;28;20460;-95
2021/04/21 01:13:30;;;;;;;22.47;15.50;;;;;;;;;;5014480;28;20448;-95
2021/04/21 01:15:56;;;;;;;22.50;17.10;;;;;;;;;;5015110;28;21026;-96
2021/04/21 01:18:23;;;;;;;24.40;18.23;;;;;;;;;;5015322;28;20480;-96
2021/04/21 01:20:55;;;;;;;21.50;16.10;;;;;;;;;;5015753;28;20491;-95
2021/04/21 01:23:34;;;;;;;26.50;19.13;;;;;;;;;;5015486;28;20510;-94
2021/04/21 01:26:08;;;;;;;26.03;20.03;;;;;;;;;;5016115;28;20455;-96
2021/04/21 01:28:36;;;;;;;26.10;19.90;;;;;;;;;;5007400;28;20472;-96
2021/04/21 01:31:02;;;;;;;23.00;17.30;;;;;;;;;;5012430;28;20445;-94
2021/04/21 01:33:29;;;;;;;28.50;18.93;;;;;;;;;;5013816;28;20461;-95
2021/04/21 01:35:56;;;;;;;19.93;15.50;;;;;;;;;;5013663;28;20453;-96
2021/04/21 01:38:24;;;;;;;21.17;16.80;;;;;;;;;;5019939;28;20464;-95
2021/04/21 01:40:51;;;;;;;25.40;18.10;;;;;;;;;;5013964;28;20566;-96
2021/04/21 01:43:18;;;;;;;26.47;19.20;;;;;;;;;;5013854;28;20455;-96
2021/04/21 01:45:47;;;;;;;25.60;18.73;;;;;;;;;;5014881;28;20509;-96
2021/04/21 01:48:15;;;;;;;26.10;19.60;;;;;;;;;;5012941;28;20474;-96
2021/04/21 01:50:41;;;;;;;27.23;19.77;;;;;;;;;;5008108;28;20459;-96
2021/04/21 01:53:12;;;;;;;28.60;20.37;;;;;;;;;;5011682;28;20947;-95
2021/04/21 01:55:53;;;;;;;30.40;20.40;;;;;;;;;;5005907;28;20452;-96
2021/04/21 01:58:35;;;;;;;29.40;20.53;;;;;;;;;;5011129;28;20460;-96
2021/04/21 02:01:06;;;;;;;27.00;19.10;;;;;;;;;;4995630;28;20489;-95
2021/04/21 02:03:34;;;;;;;24.27;17.73;;;;;;;;;;5013902;28;20452;-94
2021/04/21 02:06:18;;;;;;;24.13;18.00;;;;;;;;;;5014059;28;20459;-95
2021/04/21 02:08:53;;;;;;;22.30;16.73;;;;;;;;;;5009078;28;20456;-95
2021/04/21 02:11:21;;;;;;;25.37;18.60;;;;;;;;;;5021516;28;20462;-96
2021/04/21 02:13:56;;;;;;;21.93;17.50;;;;;;;;;;5006473;28;20455;-96
2021/04/21 02:16:26;;;;;;;24.50;17.70;;;;;;;;;;5015224;28;20470;-96
2021/04/21 02:19:02;;;;;;;29.57;20.83;;;;;;;;;;5012711;28;20445;-95
2021/04/21 02:21:31;;;;;;;25.23;18.40;;;;;;;;;;5011806;28;20496;-96
2021/04/21 02:23:59;;;;;;;22.37;17.20;;;;;;;;;;5022214;28;20479;-96
2021/04/21 02:26:27;;;;;;;29.37;18.80;;;;;;;;;;5007094;28;20459;-95
2021/04/21 02:28:58;;;;;;;23.93;18.27;;;;;;;;;;5018904;28;20449;-95
2021/04/21 02:31:30;;;;;;;23.23;15.53;;;;;;;;;;5010964;28;20550;-96
2021/04/21 02:34:00;;;;;;;22.70;15.10;;;;;;;;;;5017590;28;20495;-96
2021/04/21 02:36:30;;;;;;;25.80;16.83;;;;;;;;;;5003824;28;20453;-96
2021/04/21 02:39:04;;;;;;;23.70;16.60;;;;;;;;;;5032791;28;20436;-96
2021/04/21 02:41:34;;;;;;;21.47;15.50;;;;;;;;;;5017020;28;20487;-96
2021/04/21 02:44:07;;;;;;;21.30;16.23;;;;;;;;;;5012934;28;20449;-96
2021/04/21 02:46:38;;;;;;;19.60;15.37;;;;;;;;;;5018155;28;20472;-96
2021/04/21 02:49:12;;;;;;;20.30;14.90;;;;;;;;;;5012512;28;20487;-96
2021/04/21 02:51:45;;;;;;;20.63;15.97;;;;;;;;;;5005062;28;20480;-96
2021/04/21 02:54:14;;;;;;;23.93;15.57;;;;;;;;;;5005078;28;20523;-96
2021/04/21 02:56:42;;;;;;;22.40;15.80;;;;;;;;;;5004128;28;20472;-96
2021/04/21 02:59:35;;;;;;;26.10;17.30;;;;;;;;;;4999071;28;20469;-96
2021/04/21 03:02:05;;;;;;;24.70;18.33;;;;;;;;;;5009673;28;20492;-96
2021/04/21 03:04:38;;;;;;;22.63;16.60;;;;;;;;;;5012457;28;20459;-96
2021/04/21 03:07:09;;;;;;;22.83;16.77;;;;;;;;;;5020650;28;20460;-96
2021/04/21 03:09:38;;;;;;;24.07;17.90;;;;;;;;;;5010279;28;20512;-95
2021/04/21 03:12:06;;;;;;;24.43;18.30;;;;;;;;;;5006885;28;20437;-96
2021/04/21 03:14:33;;;;;;;30.33;18.80;;;;;;;;;;5002204;28;20460;-96
2021/04/21 03:17:01;;;;;;;26.83;19.83;;;;;;;;;;5003136;28;20460;-96
2021/04/21 03:19:29;;;;;;;23.87;17.20;;;;;;;;;;5003881;28;20457;-96
2021/04/21 03:21:58;;;;;;;25.90;19.37;;;;;;;;;;5003171;28;21182;-96
2021/04/21 03:24:27;;;;;;;23.20;16.80;;;;;;;;;;5002401;28;20464;-95
2021/04/21 03:26:55;;;;;;;27.47;20.77;;;;;;;;;;5002434;28;20959;-96
2021/04/21 03:29:25;;;;;;;21.97;15.73;;;;;;;;;;5006418;28;20461;-96
2021/04/21 03:31:52;;;;;;;23.90;17.10;;;;;;;;;;5004719;28;20465;-96
2021/04/21 03:34:20;;;;;;;22.67;16.50;;;;;;;;;;5002686;28;20491;-96
2021/04/21 03:36:48;;;;;;;27.13;17.40;;;;;;;;;;5003039;28;20528;-96
2021/04/21 03:39:14;;;;;;;30.50;20.90;;;;;;;;;;5004871;28;21244;-96
2021/04/21 03:41:41;;;;;;;33.17;24.23;;;;;;;;;;5004222;28;20238;-96
2021/04/21 03:44:07;;;;;;;32.53;23.37;;;;;;;;;;5004525;28;20472;-96
2021/04/21 03:46:33;;;;;;;33.30;24.20;;;;;;;;;;5005663;28;20531;-96
2021/04/21 03:49:00;;;;;;;35.73;27.13;;;;;;;;;;5003914;28;20484;-96
2021/04/21 03:51:26;;;;;;;37.87;28.83;;;;;;;;;;5003862;28;20445;-94
2021/04/21 03:53:54;;;;;;;36.87;27.50;;;;;;;;;;5002315;28;20598;-95
2021/04/21 03:56:23;;;;;;;39.13;27.70;;;;;;;;;;5002958;28;20472;-95
2021/04/21 03:58:50;;;;;;;35.87;27.67;;;;;;;;;;5003337;28;20217;-96
2021/04/21 04:01:17;;;;;;;37.37;26.03;;;;;;;;;;5003480;28;20884;-94
2021/04/21 04:03:47;;;;;;;33.67;26.27;;;;;;;;;;5003882;28;20464;-96
2021/04/21 04:06:15;;;;;;;44.80;31.63;;;;;;;;;;5004516;28;20453;-95
2021/04/21 04:08:44;;;;;;;37.47;27.20;;;;;;;;;;5003057;28;20456;-95
2021/04/21 04:11:14;;;;;;;33.17;26.10;;;;;;;;;;5008365;28;20444;-96
2021/04/21 04:13:43;;;;;;;35.25;24.63;;;;;;;;;;5011181;28;20504;-96
2021/04/21 04:16:18;;;;;;;32.40;22.47;;;;;;;;;;5014101;28;20277;-96
2021/04/21 04:18:47;;;;;;;27.20;20.20;;;;;;;;;;5012968;28;20451;-96
2021/04/21 04:21:15;;;;;;;30.80;22.70;;;;;;;;;;4994693;28;20484;-96
2021/04/21 04:26:52;;;;;;;84.93;45.20;;;;;;;;;;5018871;28;20538;-96
2021/04/21 04:35:13;;;;;;;34.47;24.13;;;;;;;;;;5054395;28;20490;-96
2021/04/21 04:37:41;;;;;;;33.23;22.43;;;;;;;;;;5056574;28;20782;-96
2021/04/21 04:40:08;;;;;;;29.70;23.00;;;;;;;;;;5060454;28;20438;-96
2021/04/21 04:42:36;;;;;;;35.27;26.13;;;;;;;;;;5056220;28;20459;-96
2021/04/21 04:45:05;;;;;;;43.97;28.40;;;;;;;;;;5058656;28;20458;-96
2021/04/21 04:47:33;;;;;;;39.07;27.83;;;;;;;;;;5060163;28;20462;-96
2021/04/21 05:02:27;;;;;;;35.70;26.73;;;;;;;;;;5021109;28;20501;-96
2021/04/21 05:05:00;;;;;;;35.80;25.97;;;;;;;;;;5036770;28;20438;-96
2021/04/21 05:07:29;;;;;;;35.07;24.67;;;;;;;;;;5035281;28;20439;-96
2021/04/21 05:09:58;;;;;;;33.53;26.07;;;;;;;;;;5051607;28;20443;-96
2021/04/21 05:12:25;;;;;;;28.50;22.97;;;;;;;;;;5050533;28;20439;-96
2021/04/21 05:14:53;;;;;;;31.53;22.47;;;;;;;;;;5031749;28;20514;-96
2021/04/21 05:17:49;;;;;;;33.50;20.30;;;;;;;;;;5055123;28;20461;-96
2021/04/21 05:20:30;;;;;;;32.30;23.67;;;;;;;;;;5058259;28;20441;-96
2021/04/21 05:23:11;;;;;;;27.33;21.10;;;;;;;;;;5057651;28;20439;-96
2021/04/21 05:26:09;;;;;;;30.50;22.20;;;;;;;;;;5054342;28;20439;-96
2021/04/21 05:28:50;;;;;;;29.67;22.27;;;;;;;;;;5051369;28;20463;-96
2021/04/21 07:01:48;;;;;;;19.80;16.60;;;;;;;;;;4599148;22;20488;-96
2021/04/21 07:10:32;;;;;;;16.50;14.70;;;;;;;;;;5591350;23;20587;-96
2021/04/21 07:18:24;;;;;;;21.60;15.67;;;;;;;;;;5401262;23;20484;-96
2021/04/21 07:23:43;;;;;;;16.40;14.67;;;;;;;;;;5894445;22;20474;-96
2021/04/21 07:41:40;;;;;;;14.00;12.70;;;;;;;;;;5060722;28;20498;-96
2021/04/21 07:44:26;;;;;;;16.50;13.77;;;;;;;;;;5059120;28;20426;-95
2021/04/21 07:46:53;;;;;;;15.00;13.50;;;;;;;;;;5056946;28;20429;-96
2021/04/21 07:51:52;;;;;;;16.50;12.90;;;;;;;;;;5095005;23;20499;-96
2021/04/21 07:54:23;;;;;;;12.63;11.33;;;;;;;;;;5041556;28;20457;-96
2021/04/21 07:56:56;;;;;;;16.27;14.60;;;;;;;;;;5046353;28;20442;-96
2021/04/21 07:59:30;;;;;;;15.10;13.50;;;;;;;;;;5056852;28;20455;-96
2021/04/21 08:02:14;;;;;;;14.33;12.93;;;;;;;;;;5058647;28;20477;-96
2021/04/21 08:04:51;;;;;;;14.50;13.10;;;;;;;;;;5211497;23;20497;-96
2021/04/21 08:07:27;;;;;;;17.10;11.67;;;;;;;;;;5078409;28;20709;-96
2021/04/21 08:18:44;;;;;;;11.50;10.30;;;;;;;;;;5818070;23;20497;-96
2021/04/21 08:21:12;;;;;;;11.00;10.00;;;;;;;;;;5040911;23;20486;-96
2021/04/21 08:23:39;;;;;;;11.50;10.40;;;;;;;;;;5039845;28;20427;-95
2021/04/21 08:26:06;;;;;;;9.07;8.17;;;;;;;;;;5068207;23;20462;-96
2021/04/21 08:28:32;;;;;;;8.17;7.37;;;;;;;;;;5043188;28;20502;-96
2021/04/21 08:31:00;;;;;;;7.77;7.07;;;;;;;;;;5076464;22;20485;-96
2021/04/21 08:33:26;;;;;;;7.10;6.43;;;;;;;;;;5050385;28;20474;-96
2021/04/21 08:38:20;;;;;;;5.78;5.28;;;;;;;;;;5213913;23;20516;-96
2021/04/21 08:40:48;;;;;;;6.30;5.50;;;;;;;;;;5011560;28;20246;-94
2021/04/21 08:43:15;;;;;;;4.47;4.07;;;;;;;;;;5015241;28;20436;-96
2021/04/21 08:45:41;;;;;;;5.27;4.77;;;;;;;;;;5038587;23;20488;-96
2021/04/21 08:48:08;;;;;;;5.20;4.70;;;;;;;;;;5047145;28;20476;-96
2021/04/21 08:50:36;;;;;;;4.73;4.33;;;;;;;;;;5112146;22;20482;-96
2021/04/21 08:53:03;;;;;;;5.47;4.40;;;;;;;;;;5018701;28;20500;-94
2021/04/21 08:55:31;;;;;;;4.63;4.23;;;;;;;;;;5051582;28;20443;-96
2021/04/21 08:57:57;;;;;;;5.03;4.63;;;;;;;;;;5053529;28;20434;-96
2021/04/21 09:03:12;;;;;;;7.60;5.00;;;;;;;;;;5117011;22;20506;-96
2021/04/21 09:05:38;;;;;;;5.03;4.60;;;;;;;;;;5057857;28;20431;-95
2021/04/21 09:08:06;;;;;;;4.70;4.30;;;;;;;;;;5061982;23;20488;-96
2021/04/21 09:10:34;;;;;;;4.40;4.00;;;;;;;;;;5091677;28;20455;-96
2021/04/21 09:13:00;;;;;;;3.80;3.60;;;;;;;;;;5083531;28;20491;-96
2021/04/21 09:15:33;;;;;;;5.47;4.27;;;;;;;;;;5082526;28;20810;-96
2021/04/21 09:20:27;;;;;;;5.57;5.10;;;;;;;;;;5087967;22;20495;-94
2021/04/21 09:23:04;;;;;;;5.13;4.13;;;;;;;;;;5050155;28;20463;-94
2021/04/21 09:25:31;;;;;;;5.00;4.43;;;;;;;;;;5050872;28;20459;-96
2021/04/21 09:27:58;;;;;;;4.60;4.20;;;;;;;;;;5052250;28;20435;-96
2021/04/21 09:30:27;;;;;;;5.00;4.13;;;;;;;;;;5052111;28;20462;-96
2021/04/21 09:33:15;;;;;;;8.03;4.30;;;;;;;;;;5067729;22;20482;-96
2021/04/21 09:35:43;;;;;;;4.60;4.20;;;;;;;;;;5045977;22;21089;-96
2021/04/21 09:38:11;;;;;;;4.40;3.80;;;;;;;;;;5019742;28;20461;-96
2021/04/21 09:40:44;;;;;;;6.03;5.43;;;;;;;;;;5116445;23;20488;-96
2021/04/21 09:43:17;;;;;;;5.33;4.80;;;;;;;;;;5053911;28;20463;-96
2021/04/21 09:45:45;;;;;;;4.20;3.80;;;;;;;;;;5053308;28;20439;-96
2021/04/21 09:51:07;;;;;;;3.70;3.30;;;;;;;;;;5053813;28;20538;-96
2021/04/21 09:53:39;;;;;;;4.10;3.50;;;;;;;;;;5054983;28;20477;-96
2021/04/21 10:01:43;;;;;;;3.28;2.65;;;;;;;;;;5079993;22;20483;-96
2021/04/21 10:04:10;;;;;;;2.47;2.33;;;;;;;;;;5051541;28;20748;-96
2021/04/21 10:07:00;;;;;;;4.37;2.93;;;;;;;;;;5051032;28;20427;-96
2021/04/21 10:09:28;;;;;;;2.87;2.57;;;;;;;;;;5055038;28;20459;-96
2021/04/21 10:12:12;;;;;;;3.47;1.93;;;;;;;;;;5050236;28;20455;-96
2021/04/21 10:14:39;;;;;;;2.80;2.53;;;;;;;;;;5029000;28;20472;-96
2021/04/21 10:17:06;;;;;;;3.20;2.90;;;;;;;;;;5044566;28;20447;-95
2021/04/21 10:19:33;;;;;;;3.43;3.13;;;;;;;;;;5051343;28;20509;-96
2021/04/21 10:22:00;;;;;;;4.00;3.40;;;;;;;;;;5033231;28;20501;-96
2021/04/21 10:24:26;;;;;;;3.97;3.57;;;;;;;;;;5055278;28;20465;-96
2021/04/21 10:26:53;;;;;;;3.70;2.50;;;;;;;;;;5055017;28;20459;-95
2021/04/21 10:29:21;;;;;;;2.83;2.60;;;;;;;;;;5056319;28;20427;-96
2021/04/21 10:31:47;;;;;;;3.70;3.37;;;;;;;;;;5052108;23;20569;-96
2021/04/21 10:36:54;;;;;;;2.40;2.20;;;;;;;;;;5069668;28;20494;-96
2021/04/21 10:39:28;;;;;;;2.50;2.30;;;;;;;;;;5063978;28;20504;-96
2021/04/21 10:44:32;;;;;;;3.00;2.70;;;;;;;;;;4338605;26;20490;-93
2021/04/21 10:47:08;;;;;;;2.90;2.70;;;;;;;;;;5071300;28;20430;-95
2021/04/21 10:52:27;;;;;;;3.00;2.80;;;;;;;;;;5071141;28;20446;-95
2021/04/21 10:54:55;;;;;;;2.83;2.63;;;;;;;;;;5136573;22;20477;-96
2021/04/21 10:57:25;;;;;;;2.97;2.77;;;;;;;;;;5026419;28;20485;-96
2021/04/21 11:00:12;;;;;;;2.90;2.70;;;;;;;;;;5013164;28;21219;-96
2021/04/21 11:02:56;;;;;;;4.33;3.00;;;;;;;;;;5015106;28;20525;-96
2021/04/21 11:05:28;;;;;;;3.40;3.20;;;;;;;;;;5006895;28;20448;-96
2021/04/21 11:08:02;;;;;;;3.83;3.53;;;;;;;;;;5004014;28;20459;-96
2021/04/21 11:10:40;;;;;;;3.67;3.47;;;;;;;;;;5008553;28;20451;-96
2021/04/21 11:15:54;;;;;;;3.70;3.20;;;;;;;;;;5014538;28;20458;-96
2021/04/21 11:18:27;;;;;;;3.03;2.83;;;;;;;;;;5018530;28;20554;-96
2021/04/21 11:20:59;;;;;;;9.20;3.50;;;;;;;;;;5033144;28;20539;-96
2021/04/21 11:26:43;;;;;;;3.53;3.07;;;;;;;;;;5054303;28;20423;-96
2021/04/21 11:29:13;;;;;;;3.57;3.27;;;;;;;;;;5031486;28;20444;-95
2021/04/21 11:34:42;;;;;;;3.50;3.30;;;;;;;;;;5049143;28;20439;-96
2021/04/21 11:47:41;;;;;;;3.10;2.90;;;;;;;;;;5022441;23;20491;-95
2021/04/21 11:50:25;;;;;;;3.10;2.90;;;;;;;;;;5007000;28;20448;-96
2021/04/21 11:53:15;;;;;;;4.20;2.63;;;;;;;;;;5008506;28;20486;-95
2021/04/21 11:55:54;;;;;;;3.27;2.97;;;;;;;;;;5056421;23;20543;-93
2021/04/21 11:58:21;;;;;;;2.80;2.60;;;;;;;;;;5045284;28;20455;-95
2021/04/21 12:00:48;;;;;;;4.80;2.63;;;;;;;;;;5046121;28;20482;-96
2021/04/21 12:03:19;;;;;;;3.93;3.20;;;;;;;;;;5048816;28;20439;-95
2021/04/21 12:05:48;;;;;;;2.73;2.53;;;;;;;;;;5030252;28;20463;-96
2021/04/21 12:08:17;;;;;;;2.70;2.50;;;;;;;;;;5050896;23;20698;-94
2021/04/21 12:10:44;;;;;;;3.00;2.80;;;;;;;;;;5060668;28;20438;-95
2021/04/21 12:16:09;;;;;;;2.70;2.50;;;;;;;;;;5063817;28;20430;-96
2021/04/21 12:18:40;;;;;;;3.20;3.00;;;;;;;;;;5070887;28;20494;-95
2021/04/21 12:21:20;;;;;;;2.70;2.50;;;;;;;;;;5078287;28;20527;-96
2021/04/21 12:23:47;;;;;;;2.73;2.63;;;;;;;;;;5051657;28;20451;-96
2021/04/21 12:26:20;;;;;;;2.73;2.53;;;;;;;;;;5072088;28;20456;-96
2021/04/21 12:28:48;;;;;;;3.10;2.70;;;;;;;;;;5063335;28;20453;-94
2021/04/21 12:31:14;;;;;;;2.97;2.77;;;;;;;;;;5055083;28;20450;-93
2021/04/21 12:33:41;;;;;;;2.60;2.40;;;;;;;;;;5058488;28;20488;-95
2021/04/21 12:36:08;;;;;;;2.70;2.50;;;;;;;;;;5041294;28;20449;-96
2021/04/21 12:41:33;;;;;;;2.90;2.70;;;;;;;;;;5051689;22;20508;-96
2021/04/21 12:44:12;;;;;;;2.63;2.50;;;;;;;;;;5019619;28;20448;-96
2021/04/21 12:46:39;;;;;;;2.70;2.50;;;;;;;;;;5037558;28;20450;-96
2021/04/21 12:49:06;;;;;;;3.77;3.00;;;;;;;;;;5044107;28;20462;-96
2021/04/21 12:51:32;;;;;;;2.77;2.57;;;;;;;;;;5072441;22;20554;-93
2021/04/21 12:54:01;;;;;;;3.30;3.00;;;;;;;;;;5092677;28;20476;-96
2021/04/21 12:59:13;;;;;;;3.77;3.57;;;;;;;;;;5089525;28;20482;-94
2021/04/21 13:01:39;;;;;;;4.30;3.90;;;;;;;;;;5069528;28;20581;-96
2021/04/21 13:04:11;;;;;;;5.33;3.60;;;;;;;;;;5089269;28;20441;-93
2021/04/21 13:06:38;;;;;;;4.00;3.70;;;;;;;;;;5087268;28;20503;-95
2021/04/21 13:09:08;;;;;;;3.77;3.47;;;;;;;;;;5091053;28;20454;-95
2021/04/21 13:11:34;;;;;;;4.03;3.60;;;;;;;;;;5090058;28;20516;-96
2021/04/21 13:14:00;;;;;;;3.70;3.40;;;;;;;;;;5087253;28;20462;-96
2021/04/21 13:16:31;;;;;;;4.30;3.90;;;;;;;;;;5087653;28;20450;-96
2021/04/21 13:18:58;;;;;;;4.73;3.20;;;;;;;;;;5092751;28;20453;-96
2021/04/21 13:21:26;;;;;;;3.83;3.53;;;;;;;;;;5093116;28;20558;-96
2021/04/21 13:23:52;;;;;;;3.40;3.20;;;;;;;;;;5080000;28;20482;-96
2021/04/21 13:26:22;;;;;;;3.60;3.40;;;;;;;;;;5072302;28;20475;-96
2021/04/21 13:29:09;;;;;;;3.73;3.43;;;;;;;;;;5089345;28;20441;-96
2021/04/21 13:31:36;;;;;;;5.20;3.43;;;;;;;;;;5082434;28;20442;-96
2021/04/21 13:34:02;;;;;;;3.30;3.10;;;;;;;;;;5086900;28;20504;-96
2021/04/21 13:36:41;;;;;;;4.07;3.77;;;;;;;;;;5090708;28;20437;-95
2021/04/21 13:39:07;;;;;;;3.20;3.00;;;;;;;;;;5094466;28;20428;-96
2021/04/21 13:41:41;;;;;;;3.97;3.57;;;;;;;;;;5069663;23;721249;-96
2021/04/21 13:47:19;;;;;;;3.40;3.20;;;;;;;;;;5094602;28;20533;-96
2021/04/21 13:49:47;;;;;;;3.60;3.30;;;;;;;;;;5097052;23;20503;-96
2021/04/21 13:52:14;;;;;;;3.53;3.23;;;;;;;;;;5053782;28;20424;-93
2021/04/21 13:54:40;;;;;;;3.10;2.90;;;;;;;;;;5053841;28;20508;-93
2021/04/21 13:57:07;;;;;;;3.40;3.20;;;;;;;;;;5053120;28;21278;-96
2021/04/21 13:59:33;;;;;;;3.10;2.90;;;;;;;;;;5046740;28;20458;-96
2021/04/21 14:01:59;;;;;;;3.03;2.83;;;;;;;;;;5049697;28;20520;-94
2021/04/21 14:04:25;;;;;;;3.27;3.07;;;;;;;;;;5050209;28;20850;-96
2021/04/21 14:06:54;;;;;;;3.37;3.07;;;;;;;;;;5054111;28;20450;-94
2021/04/21 14:09:21;;;;;;;3.33;3.13;;;;;;;;;;5052917;28;20468;-96
2021/04/21 14:11:47;;;;;;;3.40;3.20;;;;;;;;;;5048470;28;20504;-93
2021/04/21 14:16:49;;;;;;;3.53;3.23;;;;;;;;;;4628744;22;21031;-96
2021/04/21 14:19:15;;;;;;;2.80;2.60;;;;;;;;;;5069373;28;20444;-97
2021/04/21 14:21:42;;;;;;;3.20;3.00;;;;;;;;;;5078058;28;20492;-96
2021/04/21 14:24:09;;;;;;;3.37;3.07;;;;;;;;;;5135830;22;20502;-96
2021/04/21 14:26:36;;;;;;;3.00;2.80;;;;;;;;;;5070394;28;20466;-96
2021/04/21 14:32:06;;;;;;;3.30;3.00;;;;;;;;;;5058653;23;20496;-96
2021/04/21 14:34:33;;;;;;;3.27;3.03;;;;;;;;;;5030786;28;20452;-96
2021/04/21 14:36:59;;;;;;;3.40;3.10;;;;;;;;;;5022711;28;20452;-96
2021/04/21 14:39:28;;;;;;;3.07;2.80;;;;;;;;;;5040273;28;20441;-94
2021/04/21 14:44:40;;;;;;;3.00;2.53;;;;;;;;;;5028398;28;20480;-96
2021/04/21 15:03:19;;;;;;;2.40;2.30;;;;;;;;;;5067168;22;20479;-95
2021/04/21 15:05:45;;;;;;;3.60;2.40;;;;;;;;;;5038477;28;20530;-96
2021/04/21 15:08:12;;;;;;;2.43;2.23;;;;;;;;;;5031200;28;20459;-96
2021/04/21 15:10:38;;;;;;;2.40;2.27;;;;;;;;;;5045073;28;20464;-96
2021/04/21 15:13:07;;;;;;;2.60;2.40;;;;;;;;;;5043357;28;20455;-96
2021/04/21 15:15:34;;;;;;;2.37;2.20;;;;;;;;;;5046275;28;20464;-96
2021/04/21 15:18:00;;;;;;;2.40;2.20;;;;;;;;;;5047100;28;21296;-96
2021/04/21 15:20:42;;;;;;;2.70;2.50;;;;;;;;;;5049067;28;20504;-96
2021/04/21 15:23:11;;;;;;;2.33;2.13;;;;;;;;;;5041873;28;20879;-96
2021/04/21 15:25:39;;;;;;;2.33;2.13;;;;;;;;;;5030330;28;20519;-96
2021/04/21 15:28:05;;;;;;;2.50;2.30;;;;;;;;;;5047679;28;20467;-96
2021/04/21 15:30:31;;;;;;;2.60;2.40;;;;;;;;;;5049307;28;20462;-96
2021/04/21 15:32:59;;;;;;;4.30;2.50;;;;;;;;;;5047489;28;20871;-96
2021/04/21 15:35:26;;;;;;;2.60;2.40;;;;;;;;;;5050707;28;20517;-96
2021/04/21 15:37:53;;;;;;;4.57;2.60;;;;;;;;;;5069018;23;20499;-96
2021/04/21 15:40:24;;;;;;;2.50;2.30;;;;;;;;;;5046382;28;20510;-96
2021/04/21 15:42:51;;;;;;;5.37;2.57;;;;;;;;;;5040720;28;20488;-96
2021/04/21 15:45:19;;;;;;;2.83;2.27;;;;;;;;;;5048333;28;20452;-96
2021/04/21 15:47:46;;;;;;;2.37;2.17;;;;;;;;;;5051128;28;20435;-96
2021/04/21 15:50:14;;;;;;;3.20;2.17;;;;;;;;;;5055110;28;20494;-96
2021/04/21 15:52:40;;;;;;;2.33;2.23;;;;;;;;;;5051202;28;20455;-96
2021/04/21 15:55:07;;;;;;;3.23;2.60;;;;;;;;;;5050266;28;20523;-96
2021/04/21 15:57:35;;;;;;;2.30;2.10;;;;;;;;;;5050416;28;20462;-96
2021/04/21 16:00:02;;;;;;;3.00;2.80;;;;;;;;;;5033816;28;20452;-96
2021/04/21 16:02:29;;;;;;;3.87;3.57;;;;;;;;;;5036870;28;20488;-96
2021/04/21 16:04:55;;;;;;;5.30;2.90;;;;;;;;;;5053312;28;20415;-96
2021/04/21 16:07:22;;;;;;;4.50;2.70;;;;;;;;;;5058810;28;20470;-96
2021/04/21 16:09:49;;;;;;;5.80;2.53;;;;;;;;;;5038530;28;20446;-96
2021/04/21 16:12:16;;;;;;;2.90;2.60;;;;;;;;;;5052254;28;20960;-96
2021/04/21 16:14:43;;;;;;;2.83;2.40;;;;;;;;;;5050091;28;20463;-96
2021/04/21 16:17:10;;;;;;;2.50;2.30;;;;;;;;;;5039164;28;20512;-95
2021/04/21 16:19:36;;;;;;;2.20;2.10;;;;;;;;;;5047190;28;20458;-96
2021/04/21 16:22:02;;;;;;;3.20;2.20;;;;;;;;;;5050061;28;21091;-96
2021/04/21 16:24:28;;;;;;;2.67;2.47;;;;;;;;;;5044478;28;20459;-96
2021/04/21 16:26:54;;;;;;;2.53;2.30;;;;;;;;;;5043475;28;20505;-96
2021/04/21 16:29:20;;;;;;;4.10;2.53;;;;;;;;;;5049797;28;20469;-96
2021/04/21 16:31:47;;;;;;;3.00;2.80;;;;;;;;;;5047164;28;20453;-96
2021/04/21 16:34:14;;;;;;;2.60;2.40;;;;;;;;;;5041927;28;20560;-96
2021/04/21 16:36:40;;;;;;;2.80;2.60;;;;;;;;;;5041297;28;20522;-96
2021/04/21 16:39:06;;;;;;;2.97;2.77;;;;;;;;;;5041905;28;20515;-96
2021/04/21 16:41:32;;;;;;;5.10;3.60;;;;;;;;;;5047143;28;20480;-96
2021/04/21 16:44:21;;;;;;;4.83;3.50;;;;;;;;;;5051184;28;20456;-96
2021/04/21 16:50:08;;;;;;;4.03;3.73;;;;;;;;;;5049210;28;20463;-96
2021/04/21 16:52:35;;;;;;;4.60;3.87;;;;;;;;;;5039843;28;20455;-96
2021/04/21 16:55:01;;;;;;;4.60;4.20;;;;;;;;;;5059445;28;20435;-96
2021/04/21 16:57:27;;;;;;;5.07;4.57;;;;;;;;;;5038476;28;20446;-96
2021/04/21 16:59:54;;;;;;;6.60;4.77;;;;;;;;;;5041949;28;20450;-96
2021/04/21 17:04:57;;;;;;;5.13;4.63;;;;;;;;;;5097793;22;20497;-96
2021/04/21 17:10:03;;;;;;;5.00;4.50;;;;;;;;;;5231301;23;20472;-96
2021/04/21 17:12:29;;;;;;;5.30;4.80;;;;;;;;;;5098679;28;20441;-96
2021/04/21 17:20:51;;;;;;;5.57;5.07;;;;;;;;;;4639679;22;20889;-96
2021/04/21 17:23:19;;;;;;;5.40;4.90;;;;;;;;;;5016365;28;20487;-96
2021/04/21 17:28:27;;;;;;;6.77;6.17;;;;;;;;;;841152;23;20805;-96
2021/04/21 17:30:55;;;;;;;9.13;7.20;;;;;;;;;;5042399;28;20470;-96
2021/04/21 17:33:25;;;;;;;10.83;7.97;;;;;;;;;;5049824;28;20448;-96
2021/04/21 17:35:51;;;;;;;7.23;6.47;;;;;;;;;;5052684;28;20466;-96
2021/04/21 17:38:17;;;;;;;7.87;6.40;;;;;;;;;;5053006;28;20482;-97
2021/04/21 17:40:47;;;;;;;10.67;6.70;;;;;;;;;;5052713;28;20453;-96
2021/04/21 17:48:25;;;;;;;4.40;4.00;;;;;;;;;;5047739;23;20486;-96
2021/04/21 17:50:52;;;;;;;7.00;5.40;;;;;;;;;;5048682;28;20453;-96
2021/04/21 17:53:19;;;;;;;4.97;4.47;;;;;;;;;;5046373;28;20455;-96
2021/04/21 17:55:45;;;;;;;4.30;3.90;;;;;;;;;;5048987;28;20463;-96
2021/04/21 17:58:11;;;;;;;7.83;4.77;;;;;;;;;;5049951;28;20471;-96
2021/04/21 18:00:38;;;;;;;5.30;4.80;;;;;;;;;;5045371;28;20451;-96
2021/04/21 18:03:05;;;;;;;6.70;5.67;;;;;;;;;;5047683;28;20489;-96
2021/04/21 18:05:34;;;;;;;6.87;6.17;;;;;;;;;;5049342;28;20460;-96
2021/04/21 18:08:00;;;;;;;7.70;6.50;;;;;;;;;;5051191;28;20451;-96
2021/04/21 18:10:37;;;;;;;6.40;5.80;;;;;;;;;;5049212;28;20439;-96
2021/04/21 18:13:04;;;;;;;8.03;6.60;;;;;;;;;;5051920;28;20449;-96
2021/04/21 18:15:30;;;;;;;11.60;5.57;;;;;;;;;;5032902;28;20462;-96
2021/04/21 18:17:59;;;;;;;6.27;5.23;;;;;;;;;;5031495;28;20480;-96
2021/04/21 18:20:27;;;;;;;8.00;6.50;;;;;;;;;;5048099;28;20487;-96
2021/04/21 18:23:16;;;;;;;8.77;6.60;;;;;;;;;;5052244;28;20465;-96
2021/04/21 18:25:45;;;;;;;5.80;4.40;;;;;;;;;;5208022;22;20490;-96
2021/04/21 18:28:16;;;;;;;4.53;4.13;;;;;;;;;;5114409;28;20434;-96
2021/04/21 18:30:45;;;;;;;4.13;3.60;;;;;;;;;;5104057;28;20447;-96
2021/04/21 18:33:11;;;;;;;5.17;3.93;;;;;;;;;;5092099;28;20498;-95
2021/04/21 18:35:38;;;;;;;5.63;4.77;;;;;;;;;;5104136;28;20466;-96
2021/04/21 18:38:04;;;;;;;4.80;4.40;;;;;;;;;;5112546;28;20457;-95
2021/04/21 18:40:30;;;;;;;5.07;4.57;;;;;;;;;;5110154;28;20454;-95
2021/04/21 18:42:57;;;;;;;4.73;4.33;;;;;;;;;;5104643;28;20494;-96
2021/04/21 18:45:25;;;;;;;5.07;4.57;;;;;;;;;;5112605;28;20442;-96
2021/04/21 18:47:51;;;;;;;5.60;3.83;;;;;;;;;;5093071;28;20484;-96
2021/04/21 18:50:18;;;;;;;5.10;3.80;;;;;;;;;;5099744;28;20453;-96
2021/04/21 18:52:46;;;;;;;7.93;5.67;;;;;;;;;;5100382;28;20477;-96
2021/04/21 18:55:13;;;;;;;7.80;5.50;;;;;;;;;;5100711;28;21301;-96
2021/04/21 18:57:39;;;;;;;6.20;5.60;;;;;;;;;;5100734;28;20482;-96
2021/04/21 19:00:08;;;;;;;6.70;6.00;;;;;;;;;;5102298;28;20462;-95
2021/04/21 19:02:34;;;;;;;6.10;5.17;;;;;;;;;;5101644;28;20496;-95